Terminal Aerodrome Forecast
Issued by NWS

Home | Current Version | Previous Version | Text Only | Print | Product List | Glossary On
Versions: 1 2 3 4 5 6 7 8 9 10 11 12 13 14 15 16 17 18 19 20 21 22 23
000
FTUS43 KDLH 141900 AAA
TAFHYR
TAF AMD
KHYR 141904Z 1419/1518 25015G23KT P6SM OVC050
     FM150000 29005KT P6SM BKN050
     FM151200 31007KT P6SM SCT050=

USA.gov is the U.S. government's official web portal to all federal, state and local government web resources and services.